Roscoe, Missouri
Current Conditions -  °F | °C
As of 12:35 PM on Saturday 20 Dec 2014 (Local Time) from KGLY Reporting Station
Overcast Overcast  
Wind Chill: 32°   Ceiling: 1500
Heat Index: 39°   Visibility: 7mi
Dew Point: 36°   Wind: 10mph
Humidity: 87%   Direction: 230°SW
Pressure: 30.2"   Gusts: NA
Location:  37.97°N, 93.81°W
Report Text: KGLY 201835Z AUTO 23009KT 7SM OVC015 04/02 A3020 RMK AO2
Loading
Personal Weather Stations






























Interactive Weather Map New forecast layout! Learn more

10-Day Weather Forecast

Advertisements
Track Severe Weather on mobile